Time;durP1;ratioP1;P1;durP2;ratioP2;P2;SDS_P1;SDS_P2;PMS_P1;PMS_P2;Temp;Humidity;BMP_temperature;BMP_pressure;BME280_temperature;BME280_humidity;BME280_pressure;Samples;Min_cycle;Max_cycle;Signal;HPM_P1;HPM_P2
2022/10/29 00:00:43;;;;;;;25.63;15.53;;;14.10;1.00;;;;;;4937522;29;20228;-92
2022/10/29 00:03:12;;;;;;;22.93;16.03;;;14.10;99.90;;;;;;4938353;29;20219;-87
2022/10/29 00:05:39;;;;;;;25.00;15.90;;;14.10;99.90;;;;;;4937918;29;20548;-87
2022/10/29 00:08:06;;;;;;;23.07;15.27;;;14.10;99.90;;;;;;4937736;29;20249;-87
2022/10/29 00:10:33;;;;;;;24.13;15.50;;;14.10;99.90;;;;;;4938005;29;20291;-87
2022/10/29 00:13:01;;;;;;;22.80;15.38;;;14.10;99.90;;;;;;4937596;28;20263;-87
2022/10/29 00:15:28;;;;;;;22.33;13.97;;;14.00;99.90;;;;;;4937719;29;20294;-87
2022/10/29 00:17:55;;;;;;;20.55;13.38;;;14.10;99.90;;;;;;4937707;29;20211;-87
2022/10/29 00:20:23;;;;;;;23.20;13.30;;;14.10;99.90;;;;;;4937519;29;20721;-88
2022/10/29 00:22:54;;;;;;;22.50;13.47;;;14.10;1.00;;;;;;4937615;29;20201;-87
2022/10/29 00:25:21;;;;;;;16.10;12.03;;;14.10;1.00;;;;;;4937787;28;20639;-87
2022/10/29 00:27:48;;;;;;;19.10;12.20;;;14.10;1.00;;;;;;4937715;29;20206;-90
2022/10/29 00:30:15;;;;;;;17.13;11.80;;;14.10;1.00;;;;;;4936575;29;20245;-85
2022/10/29 00:32:42;;;;;;;18.00;11.93;;;14.20;1.00;;;;;;4937466;29;20212;-90
2022/10/29 00:35:09;;;;;;;20.80;12.27;;;14.20;1.00;;;;;;4937061;29;20257;-90
2022/10/29 00:37:39;;;;;;;19.77;12.00;;;14.20;1.00;;;;;;4937558;28;20208;-89
2022/10/29 00:40:08;;;;;;;19.27;11.90;;;14.30;99.90;;;;;;4937611;29;20308;-90
2022/10/29 00:42:35;;;;;;;24.13;11.90;;;14.30;99.90;;;;;;4937433;29;20206;-87
2022/10/29 00:45:02;;;;;;;18.02;10.63;;;14.30;99.90;;;;;;4937264;29;20205;-87
2022/10/29 00:47:31;;;;;;;21.73;11.50;;;14.30;99.90;;;;;;4936854;29;20680;-87
2022/10/29 00:50:02;;;;;;;20.35;11.35;;;14.30;99.90;;;;;;4937465;29;20552;-87
2022/10/29 00:52:33;;;;;;;18.35;10.43;;;14.30;99.90;;;;;;4936915;29;20703;-89
2022/10/29 00:55:05;;;;;;;17.08;10.75;;;14.30;99.90;;;;;;4936768;29;20203;-87
2022/10/29 00:57:36;;;;;;;16.45;10.45;;;14.30;99.90;;;;;;4936776;29;20205;-91
2022/10/29 01:00:05;;;;;;;21.40;10.87;;;14.30;99.90;;;;;;4936997;29;20195;-89
2022/10/29 01:02:35;;;;;;;17.88;10.45;;;14.30;62.80;;;;;;4936988;28;20285;-87
2022/10/29 01:05:04;;;;;;;15.63;10.37;;;14.20;26.90;;;;;;4936941;29;20203;-91
2022/10/29 01:07:31;;;;;;;19.77;11.40;;;14.20;1.00;;;;;;4936982;29;20536;-87
2022/10/29 01:09:58;;;;;;;17.53;9.93;;;14.10;12.10;;;;;;4936739;29;20207;-88
2022/10/29 01:12:40;;;;;;;18.03;10.67;;;14.10;1.00;;;;;;4936480;29;20202;-89
2022/10/29 01:15:17;;;;;;;15.87;10.47;;;14.00;47.30;;;;;;4936971;29;20182;-87
2022/10/29 01:17:59;;;;;;;16.23;10.17;;;14.00;46.00;;;;;;4936678;29;20215;-86
2022/10/29 01:20:46;;;;;;;18.97;9.53;;;13.90;23.40;;;;;;4936767;29;20206;-89
2022/10/29 01:23:42;;;;;;;16.90;10.40;;;13.90;2.80;;;;;;4936583;29;20190;-87
2022/10/29 01:26:35;;;;;;;15.97;11.10;;;13.80;30.70;;;;;;4936847;29;20199;-87
2022/10/29 01:29:20;;;;;;;16.37;10.43;;;13.80;99.90;;;;;;4936015;29;20633;-87
2022/10/29 01:31:53;;;;;;;20.87;10.47;;;13.70;99.90;;;;;;4936544;29;20192;-87
2022/10/29 01:34:25;;;;;;;19.70;10.00;;;13.70;99.90;;;;;;4936444;29;20188;-87
2022/10/29 01:36:58;;;;;;;16.10;10.60;;;13.70;99.90;;;;;;4936753;29;20221;-92
2022/10/29 01:39:35;;;;;;;16.80;9.87;;;13.70;99.90;;;;;;4936426;29;20643;-91
2022/10/29 01:42:11;;;;;;;21.53;10.73;;;13.70;1.00;;;;;;4935304;29;20664;-88
2022/10/29 01:44:42;;;;;;;14.87;9.50;;;13.70;1.00;;;;;;4936588;29;20622;-87
2022/10/29 01:47:15;;;;;;;15.67;9.50;;;13.70;1.00;;;;;;4936513;29;20187;-87
2022/10/29 01:49:45;;;;;;;18.27;10.32;;;13.70;1.00;;;;;;4936411;29;20182;-87
2022/10/29 01:52:15;;;;;;;17.97;10.40;;;13.70;1.00;;;;;;4936581;29;20278;-89
2022/10/29 01:54:43;;;;;;;22.10;10.27;;;13.70;1.00;;;;;;4936448;29;20201;-87
2022/10/29 01:57:31;;;;;;;18.67;9.87;;;13.70;1.00;;;;;;4935771;29;20553;-87
2022/10/29 02:00:02;;;;;;;21.15;10.65;;;13.70;1.00;;;;;;4936354;29;20186;-86
2022/10/29 02:02:42;;;;;;;14.70;9.47;;;13.70;1.00;;;;;;4935544;29;20585;-87
2022/10/29 02:05:16;;;;;;;20.08;10.73;;;13.60;1.00;;;;;;4935739;29;20595;-88
2022/10/29 02:07:49;;;;;;;18.87;9.93;;;13.60;1.00;;;;;;4936262;29;20191;-86
2022/10/29 02:10:24;;;;;;;18.57;9.90;;;13.60;1.00;;;;;;4935880;29;20200;-87
2022/10/29 02:12:53;;;;;;;15.60;9.80;;;13.60;1.00;;;;;;4935929;29;20190;-86
2022/10/29 02:15:25;;;;;;;15.77;9.80;;;13.60;1.00;;;;;;4935644;29;20232;-87
2022/10/29 02:17:58;;;;;;;15.50;10.27;;;13.60;1.00;;;;;;4936120;29;20280;-87
2022/10/29 02:20:25;;;;;;;17.30;9.97;;;13.50;1.00;;;;;;4935917;29;20283;-89
2022/10/29 02:22:52;;;;;;;17.50;9.97;;;13.60;1.00;;;;;;4935852;29;20199;-91
2022/10/29 02:25:19;;;;;;;15.87;9.80;;;13.60;1.00;;;;;;4935839;28;20210;-87
2022/10/29 02:27:46;;;;;;;18.07;9.90;;;13.60;1.00;;;;;;4935748;29;20591;-88
2022/10/29 02:30:14;;;;;;;18.67;9.60;;;13.60;1.00;;;;;;4935540;29;20204;-87
2022/10/29 02:32:41;;;;;;;18.90;10.13;;;13.60;1.00;;;;;;4935756;29;20718;-86
2022/10/29 02:35:10;;;;;;;16.30;9.50;;;13.60;1.00;;;;;;4935739;29;20579;-86
2022/10/29 02:37:37;;;;;;;18.50;9.90;;;13.60;1.00;;;;;;4936045;29;20204;-87
2022/10/29 02:40:05;;;;;;;17.53;10.17;;;13.60;1.00;;;;;;4935706;29;20203;-87
2022/10/29 02:42:32;;;;;;;18.70;10.37;;;13.60;1.00;;;;;;4935682;29;20221;-88
2022/10/29 02:44:59;;;;;;;15.33;10.07;;;13.70;1.00;;;;;;4935527;29;20738;-87
2022/10/29 02:47:27;;;;;;;17.97;9.83;;;13.70;1.00;;;;;;4935959;29;20211;-90
2022/10/29 02:49:54;;;;;;;14.67;9.73;;;13.80;1.00;;;;;;4935533;29;20208;-87
2022/10/29 02:52:22;;;;;;;16.20;9.67;;;13.80;1.00;;;;;;4936180;29;20212;-87
2022/10/29 02:54:49;;;;;;;18.43;9.60;;;13.80;1.00;;;;;;4938785;29;20305;-87
2022/10/29 02:57:16;;;;;;;21.33;9.73;;;13.80;1.00;;;;;;4939565;29;20591;-87
2022/10/29 02:59:43;;;;;;;14.33;9.37;;;13.80;1.00;;;;;;4939167;29;20559;-87
2022/10/29 03:02:11;;;;;;;20.03;9.80;;;13.70;1.00;;;;;;4939251;29;20225;-87
2022/10/29 03:04:40;;;;;;;18.20;9.67;;;13.70;1.00;;;;;;4939901;29;20663;-86
2022/10/29 03:07:07;;;;;;;16.97;9.27;;;13.70;1.00;;;;;;4939481;29;20205;-87
2022/10/29 03:09:35;;;;;;;17.37;9.73;;;13.60;1.00;;;;;;4939297;29;20208;-87
2022/10/29 03:12:02;;;;;;;16.97;9.63;;;13.60;1.00;;;;;;4939044;29;20205;-88
2022/10/29 03:14:29;;;;;;;14.97;9.67;;;13.50;1.00;;;;;;4939318;29;20214;-87
2022/10/29 03:16:56;;;;;;;18.00;9.40;;;13.50;1.00;;;;;;4939399;29;20212;-88
2022/10/29 03:19:23;;;;;;;19.33;9.70;;;13.50;1.00;;;;;;4939243;29;20200;-92
2022/10/29 03:21:50;;;;;;;15.47;9.37;;;13.50;1.00;;;;;;4938655;28;20232;-86
2022/10/29 03:24:17;;;;;;;18.10;10.73;;;13.50;1.00;;;;;;4939020;29;20204;-87
2022/10/29 03:26:46;;;;;;;20.83;10.13;;;13.50;1.00;;;;;;4938841;29;20212;-87
2022/10/29 03:29:13;;;;;;;18.40;10.23;;;13.50;1.00;;;;;;4939021;29;20207;-90
2022/10/29 03:31:40;;;;;;;21.30;10.53;;;13.40;1.00;;;;;;4938448;29;20662;-89
2022/10/29 03:34:07;;;;;;;17.13;10.00;;;13.40;16.60;;;;;;4938854;29;20211;-87
2022/10/29 03:36:34;;;;;;;19.60;10.10;;;13.40;11.50;;;;;;4939079;29;20229;-87
2022/10/29 03:39:01;;;;;;;14.17;9.90;;;13.40;19.10;;;;;;4938222;29;20686;-87
2022/10/29 03:41:28;;;;;;;22.27;10.77;;;13.40;34.20;;;;;;4938698;29;20227;-90
2022/10/29 03:43:57;;;;;;;16.93;10.33;;;13.40;72.70;;;;;;4938815;29;20200;-88
2022/10/29 03:46:24;;;;;;;17.37;10.00;;;13.40;99.90;;;;;;4938829;29;20225;-87
2022/10/29 03:48:51;;;;;;;21.57;10.10;;;13.40;99.90;;;;;;4938721;29;20204;-86
2022/10/29 03:51:18;;;;;;;16.47;9.87;;;13.40;99.90;;;;;;4938205;29;20197;-86
2022/10/29 03:53:45;;;;;;;17.33;9.93;;;13.40;99.90;;;;;;4938206;29;20207;-87
2022/10/29 03:56:12;;;;;;;22.73;10.97;;;13.30;99.90;;;;;;4938233;29;20192;-90
2022/10/29 03:58:39;;;;;;;20.20;10.00;;;13.30;99.90;;;;;;4938247;29;20208;-87
2022/10/29 04:01:09;;;;;;;16.33;10.10;;;13.30;79.80;;;;;;4938246;29;20237;-86
2022/10/29 04:03:40;;;;;;;24.77;10.53;;;13.30;72.00;;;;;;4938270;29;20203;-87
2022/10/29 04:06:11;;;;;;;19.00;10.20;;;13.20;81.70;;;;;;4937528;28;20206;-88
2022/10/29 04:08:38;;;;;;;21.30;11.40;;;13.20;82.30;;;;;;4938608;29;20247;-86
2022/10/29 04:11:06;;;;;;;19.77;10.70;;;13.20;79.60;;;;;;4937869;29;20207;-88
2022/10/29 04:13:34;;;;;;;23.10;10.97;;;13.20;99.90;;;;;;4938355;29;20549;-86
2022/10/29 04:16:01;;;;;;;22.90;10.83;;;13.20;99.90;;;;;;4937744;28;20208;-87
2022/10/29 04:18:29;;;;;;;18.17;10.33;;;13.20;99.90;;;;;;4937600;29;20210;-88
2022/10/29 04:21:00;;;;;;;20.87;10.77;;;13.30;99.90;;;;;;4937801;28;20216;-87
2022/10/29 04:23:27;;;;;;;19.13;10.03;;;13.40;99.90;;;;;;4938305;29;20216;-87
2022/10/29 04:25:56;;;;;;;16.20;10.30;;;13.40;99.90;;;;;;4937882;29;20227;-89
2022/10/29 04:28:23;;;;;;;19.17;10.73;;;13.60;99.90;;;;;;4937770;29;20667;-89
2022/10/29 04:30:50;;;;;;;21.70;10.77;;;13.60;80.70;;;;;;4937950;29;20200;-87
2022/10/29 04:33:18;;;;;;;24.80;10.43;;;13.60;42.90;;;;;;4937802;28;20204;-88
2022/10/29 04:35:52;;;;;;;21.00;10.40;;;13.70;18.70;;;;;;4937640;29;20575;-86
2022/10/29 04:38:20;;;;;;;18.63;10.27;;;13.70;1.00;;;;;;4937601;29;20626;-92
2022/10/29 04:40:47;;;;;;;22.63;10.67;;;13.70;1.00;;;;;;4937607;29;20207;-87
2022/10/29 04:43:14;;;;;;;23.63;11.03;;;13.60;1.00;;;;;;4936877;29;20214;-87
2022/10/29 04:45:41;;;;;;;18.27;10.90;;;13.50;1.00;;;;;;4937466;29;20251;-86
2022/10/29 04:48:09;;;;;;;22.37;10.67;;;13.50;1.00;;;;;;4937522;29;20207;-91
2022/10/29 04:50:38;;;;;;;20.73;10.77;;;13.40;1.10;;;;;;4937471;28;20211;-87
2022/10/29 04:53:08;;;;;;;21.97;11.13;;;13.40;56.90;;;;;;4937120;29;20203;-87
2022/10/29 04:55:37;;;;;;;24.73;11.73;;;13.30;99.90;;;;;;4937195;29;20228;-88
2022/10/29 04:58:04;;;;;;;22.73;12.10;;;13.30;99.90;;;;;;4937156;28;20286;-88
2022/10/29 05:00:32;;;;;;;20.13;11.67;;;13.20;99.90;;;;;;4936614;29;20660;-91
2022/10/29 05:02:59;;;;;;;24.63;11.57;;;13.20;99.90;;;;;;4936778;29;20227;-87
2022/10/29 05:05:26;;;;;;;25.10;11.37;;;13.20;99.90;;;;;;4936747;29;20207;-87
2022/10/29 05:07:58;;;;;;;24.83;11.37;;;13.20;99.90;;;;;;4936900;29;20195;-89
2022/10/29 05:10:27;;;;;;;29.70;12.03;;;13.20;99.90;;;;;;4936770;28;20231;-87
2022/10/29 05:12:59;;;;;;;22.27;11.20;;;13.20;99.90;;;;;;4936569;29;20198;-92
2022/10/29 05:15:27;;;;;;;24.60;11.67;;;13.20;99.90;;;;;;4936632;29;20230;-87
2022/10/29 05:17:54;;;;;;;24.20;12.43;;;13.20;99.90;;;;;;4936606;29;20199;-87
2022/10/29 05:20:21;;;;;;;24.03;12.17;;;13.20;99.90;;;;;;4936730;29;20204;-87
2022/10/29 05:22:48;;;;;;;24.77;12.00;;;13.20;99.90;;;;;;4936233;29;20210;-88
2022/10/29 05:25:16;;;;;;;23.97;11.77;;;13.20;99.90;;;;;;4936229;28;20632;-87
2022/10/29 05:27:44;;;;;;;29.87;12.70;;;13.20;99.90;;;;;;4936654;28;20214;-87
2022/10/29 05:30:12;;;;;;;26.17;12.97;;;13.20;99.90;;;;;;4936505;29;20191;-87
2022/10/29 05:32:39;;;;;;;25.93;12.77;;;13.20;99.90;;;;;;4936621;29;20207;-87
2022/10/29 05:35:06;;;;;;;27.63;12.60;;;13.20;99.90;;;;;;4936139;29;20575;-92
2022/10/29 05:37:33;;;;;;;21.83;12.00;;;13.20;1.00;;;;;;4936393;29;20188;-87
2022/10/29 05:40:00;;;;;;;20.67;11.53;;;13.30;1.00;;;;;;4936335;28;20207;-86
2022/10/29 05:42:27;;;;;;;20.53;11.70;;;13.30;1.00;;;;;;4936091;29;20231;-87
2022/10/29 05:44:56;;;;;;;29.33;13.67;;;13.30;1.00;;;;;;4936036;29;20204;-85
2022/10/29 05:47:23;;;;;;;29.17;13.20;;;13.30;1.00;;;;;;4936149;29;20192;-87
2022/10/29 05:49:50;;;;;;;24.20;13.00;;;13.40;1.00;;;;;;4935701;29;20200;-87
2022/10/29 05:52:17;;;;;;;23.43;12.83;;;13.30;1.00;;;;;;4936033;29;20215;-91
2022/10/29 05:54:44;;;;;;;26.63;13.17;;;13.30;1.00;;;;;;4936043;28;20212;-89
2022/10/29 05:57:11;;;;;;;27.53;13.57;;;13.30;1.00;;;;;;4936515;29;20200;-87
2022/10/29 05:59:38;;;;;;;25.53;14.67;;;13.40;1.00;;;;;;4935834;29;20199;-87
2022/10/29 06:02:08;;;;;;;28.57;14.00;;;13.40;1.00;;;;;;4936327;29;20621;-88
2022/10/29 06:04:43;;;;;;;30.43;13.73;;;13.40;1.00;;;;;;4951544;28;20176;-91
2022/10/29 06:07:11;;;;;;;24.43;12.90;;;13.40;1.00;;;;;;4957525;28;20263;-87
2022/10/29 06:09:44;;;;;;;29.40;13.57;;;13.40;1.00;;;;;;4942016;29;20712;-88
2022/10/29 06:12:11;;;;;;;27.67;12.90;;;13.40;1.00;;;;;;4936175;28;20199;-87
2022/10/29 06:14:38;;;;;;;28.77;12.83;;;13.50;1.00;;;;;;4935488;29;20204;-87
2022/10/29 06:17:07;;;;;;;24.47;11.83;;;13.50;1.00;;;;;;4936404;29;20199;-90
2022/10/29 06:19:34;;;;;;;24.70;12.50;;;13.50;1.00;;;;;;4934215;29;20677;-87
2022/10/29 06:22:04;;;;;;;31.90;13.40;;;13.50;1.00;;;;;;4946074;28;20244;-91
2022/10/29 06:24:37;;;;;;;27.40;12.00;;;13.50;1.00;;;;;;4941604;29;20228;-90
2022/10/29 06:27:10;;;;;;;26.60;12.47;;;13.50;1.00;;;;;;4939526;29;20534;-87
2022/10/29 06:29:37;;;;;;;31.27;16.47;;;13.50;1.00;;;;;;4938777;29;20210;-85
2022/10/29 06:32:12;;;;;;;40.80;21.40;;;13.50;1.00;;;;;;4947592;29;20208;-85
2022/10/29 06:35:06;;;;;;;29.03;16.50;;;13.50;1.00;;;;;;4953821;28;20196;-90
2022/10/29 06:37:48;;;;;;;31.17;14.00;;;13.50;1.00;;;;;;4946383;29;20699;-92
2022/10/29 06:40:15;;;;;;;27.90;12.70;;;13.50;1.00;;;;;;4947486;28;20198;-86
2022/10/29 06:42:44;;;;;;;27.40;13.10;;;13.50;1.00;;;;;;4941299;29;20231;-85
2022/10/29 06:45:11;;;;;;;29.47;13.23;;;13.50;1.00;;;;;;4939669;28;20221;-87
2022/10/29 06:47:55;;;;;;;33.17;13.53;;;13.60;1.00;;;;;;4946747;28;20196;-88
2022/10/29 06:50:22;;;;;;;30.00;13.03;;;13.60;1.00;;;;;;4939770;29;20195;-87
2022/10/29 06:52:56;;;;;;;34.60;14.00;;;13.60;1.00;;;;;;4939763;29;20211;-87
2022/10/29 06:55:23;;;;;;;30.87;13.73;;;13.70;1.00;;;;;;4945193;28;20199;-87
2022/10/29 06:57:56;;;;;;;30.13;13.30;;;13.70;1.00;;;;;;4939329;28;20200;-91
2022/10/29 07:00:24;;;;;;;30.87;14.40;;;13.70;1.00;;;;;;4938926;29;20184;-87
2022/10/29 07:02:52;;;;;;;26.77;13.47;;;13.80;1.00;;;;;;4939257;28;20318;-87
2022/10/29 07:05:19;;;;;;;25.00;13.82;;;13.90;1.00;;;;;;4939564;29;20208;-87
2022/10/29 07:07:47;;;;;;;30.40;14.40;;;14.00;1.00;;;;;;4945838;29;20211;-88
2022/10/29 07:10:15;;;;;;;27.90;13.50;;;14.10;1.00;;;;;;4938900;29;20641;-88
2022/10/29 07:12:43;;;;;;;28.03;13.03;;;14.10;1.00;;;;;;4937441;29;20674;-87
2022/10/29 07:15:11;;;;;;;25.67;13.30;;;14.20;1.00;;;;;;4938615;29;20200;-86
2022/10/29 07:17:40;;;;;;;25.07;12.27;;;14.20;1.00;;;;;;4939020;29;20193;-88
2022/10/29 07:20:10;;;;;;;24.13;12.17;;;14.30;1.00;;;;;;4939676;29;20197;-87
2022/10/29 07:22:37;;;;;;;30.33;12.77;;;14.40;1.00;;;;;;4938348;29;20209;-86
2022/10/29 07:25:05;;;;;;;27.70;11.70;;;14.50;1.00;;;;;;4939299;29;20196;-86
2022/10/29 07:27:32;;;;;;;22.87;12.27;;;14.60;1.00;;;;;;4937714;29;20203;-87
2022/10/29 07:29:59;;;;;;;23.63;12.90;;;14.70;1.00;;;;;;4938325;29;20190;-87
2022/10/29 07:32:26;;;;;;;30.00;12.75;;;14.80;1.00;;;;;;4939741;29;20198;-86
2022/10/29 07:34:53;;;;;;;24.60;14.65;;;15.00;1.00;;;;;;4939119;28;20239;-85
2022/10/29 07:37:22;;;;;;;23.90;12.10;;;15.10;1.00;;;;;;4938783;29;20187;-87
2022/10/29 07:39:49;;;;;;;22.65;11.82;;;15.30;1.00;;;;;;4938554;29;20202;-86
2022/10/29 07:42:16;;;;;;;42.28;24.67;;;15.60;99.90;;;;;;4938817;29;20246;-87
2022/10/29 07:44:43;;;;;;;40.28;20.52;;;15.70;99.90;;;;;;4938130;29;20200;-86
2022/10/29 07:47:10;;;;;;;22.52;12.63;;;15.80;99.90;;;;;;4937916;29;20659;-87
2022/10/29 07:49:37;;;;;;;31.00;15.98;;;15.90;87.10;;;;;;4939128;28;20271;-86
2022/10/29 07:52:04;;;;;;;238.93;95.45;;;16.10;13.40;;;;;;4938867;28;20647;-85
2022/10/29 07:54:32;;;;;;;285.83;110.47;;;16.20;1.00;;;;;;4938618;29;20212;-87
2022/10/29 07:56:59;;;;;;;57.08;26.83;;;16.40;1.00;;;;;;4938043;29;20185;-87
2022/10/29 07:59:27;;;;;;;89.78;39.28;;;16.50;99.90;;;;;;4939862;29;20197;-91
2022/10/29 08:01:54;;;;;;;37.13;18.13;;;16.50;1.00;;;;;;4939823;29;20203;-86
2022/10/29 08:04:21;;;;;;;153.73;75.75;;;16.70;1.00;;;;;;4938703;29;20224;-87
2022/10/29 08:07:05;;;;;;;140.77;72.45;;;16.70;1.00;;;;;;4942436;28;20201;-90
2022/10/29 08:09:39;;;;;;;53.42;29.15;;;16.80;99.90;;;;;;4962421;28;20197;-90
2022/10/29 08:12:12;;;;;;;63.75;33.70;;;16.90;73.40;;;;;;4962841;28;20181;-87
2022/10/29 08:14:50;;;;;;;68.72;39.70;;;16.90;99.90;;;;;;4960027;28;20173;-90
2022/10/29 08:17:17;;;;;;;66.10;43.22;;;16.80;99.90;;;;;;4943814;29;20628;-87
2022/10/29 08:19:44;;;;;;;80.63;51.28;;;16.80;99.90;;;;;;4937934;29;20208;-89
2022/10/29 08:22:11;;;;;;;88.88;56.75;;;16.90;1.00;;;;;;4934808;29;20185;-87
2022/10/29 08:24:40;;;;;;;45.30;28.05;;;17.00;99.90;;;;;;4937078;28;20812;-88
2022/10/29 08:27:07;;;;;;;35.35;23.58;;;17.10;1.00;;;;;;4937098;29;20189;-90
2022/10/29 08:29:34;;;;;;;48.40;27.20;;;17.10;12.20;;;;;;4936564;29;20197;-89
2022/10/29 08:32:01;;;;;;;89.85;53.50;;;17.00;1.00;;;;;;4936448;29;20193;-87
2022/10/29 08:34:28;;;;;;;52.55;36.08;;;17.00;1.00;;;;;;4935716;29;20601;-86
2022/10/29 08:36:56;;;;;;;41.85;28.20;;;17.10;99.90;;;;;;4916651;29;20209;-87
2022/10/29 08:39:23;;;;;;;47.95;34.15;;;17.10;1.00;;;;;;4914494;29;20606;-89
2022/10/29 08:42:01;;;;;;;26.23;17.50;;;17.00;1.00;;;;;;4917108;29;20687;-89
2022/10/29 08:45:01;;;;;;;23.38;15.77;;;17.00;1.00;;;;;;4918048;29;20553;-88
2022/10/29 08:47:30;;;;;;;20.52;15.43;;;17.00;1.00;;;;;;4912256;29;20193;-86
2022/10/29 08:50:04;;;;;;;21.98;14.15;;;17.00;99.90;;;;;;4917291;29;20194;-91
2022/10/29 08:52:34;;;;;;;44.13;29.25;;;17.00;5.70;;;;;;4917565;29;20225;-87
2022/10/29 08:55:07;;;;;;;24.77;15.35;;;17.00;1.00;;;;;;4918439;29;20225;-88
2022/10/29 08:57:41;;;;;;;22.35;16.13;;;17.10;1.00;;;;;;4918092;29;20183;-88
2022/10/29 09:00:15;;;;;;;34.58;20.55;;;17.10;99.90;;;;;;4917476;29;20674;-87
2022/10/29 09:02:42;;;;;;;22.00;15.20;;;17.20;1.00;;;;;;4917339;29;20222;-88
2022/10/29 09:05:14;;;;;;;23.55;16.25;;;17.10;1.00;;;;;;4917681;29;20202;-91
2022/10/29 09:08:18;;;;;;;21.23;15.10;;;17.10;1.00;;;;;;4916305;29;20189;-89
2022/10/29 09:10:51;;;;;;;26.90;12.80;;;17.00;1.00;;;;;;4917362;29;20542;-87
2022/10/29 09:13:32;;;;;;;29.60;21.60;;;16.90;1.00;;;;;;4917528;29;20190;-88
2022/10/29 09:16:29;;;;;;;16.02;11.25;;;16.90;1.00;;;;;;4917681;29;20560;-91
2022/10/29 09:19:21;;;;;;;18.58;14.02;;;16.90;1.00;;;;;;4917518;29;20205;-89
2022/10/29 09:22:00;;;;;;;28.77;15.40;;;16.90;1.00;;;;;;4918202;29;20648;-87
2022/10/29 09:24:35;;;;;;;26.13;15.38;;;17.00;1.00;;;;;;4917880;29;20214;-89
2022/10/29 09:27:12;;;;;;;19.85;11.77;;;17.20;99.90;;;;;;4917604;29;20241;-87
2022/10/29 09:30:02;;;;;;;21.73;11.45;;;17.30;1.00;;;;;;4918225;29;20179;-88
2022/10/29 09:32:34;;;;;;;19.85;12.65;;;17.30;1.00;;;;;;4917432;29;20229;-89
2022/10/29 09:35:03;;;;;;;21.10;12.27;;;17.40;1.00;;;;;;4921427;29;20715;-86
2022/10/29 09:37:38;;;;;;;18.08;13.52;;;17.50;99.90;;;;;;4936756;28;20201;-86
2022/10/29 09:40:13;;;;;;;20.33;12.75;;;17.50;99.90;;;;;;4937104;29;20194;-87
2022/10/29 09:42:42;;;;;;;24.67;18.75;;;17.50;99.90;;;;;;4936255;29;20192;-88
2022/10/29 09:45:17;;;;;;;22.88;15.70;;;17.70;99.90;;;;;;4936194;29;20212;-87
2022/10/29 09:47:55;;;;;;;33.03;22.48;;;17.80;1.00;;;;;;4936442;29;20179;-88
2022/10/29 09:50:29;;;;;;;23.92;14.52;;;18.00;1.00;;;;;;4936110;29;20189;-89
2022/10/29 09:52:57;;;;;;;15.93;11.05;;;18.10;1.00;;;;;;4935673;29;20556;-90
2022/10/29 09:55:28;;;;;;;14.48;9.75;;;18.20;1.00;;;;;;4936715;28;20666;-91
2022/10/29 09:57:57;;;;;;;13.20;9.60;;;18.30;1.00;;;;;;4936557;29;20213;-84
2022/10/29 10:00:27;;;;;;;15.18;11.00;;;18.40;1.00;;;;;;4936459;29;20208;-87
2022/10/29 10:02:59;;;;;;;13.52;9.52;;;18.30;1.00;;;;;;4936971;28;20200;-90
2022/10/29 10:05:28;;;;;;;25.98;16.77;;;18.30;1.00;;;;;;4944282;29;20193;-87
2022/10/29 10:08:09;;;;;;;19.08;15.35;;;18.30;1.00;;;;;;4936048;29;20675;-88
2022/10/29 10:10:49;;;;;;;13.75;10.23;;;18.30;1.00;;;;;;4935580;29;20181;-89
2022/10/29 10:13:16;;;;;;;22.83;15.45;;;18.30;1.00;;;;;;4935763;29;20220;-86
2022/10/29 10:15:50;;;;;;;20.23;14.00;;;18.20;1.00;;;;;;4935593;29;20197;-88
2022/10/29 10:18:19;;;;;;;23.98;17.27;;;18.10;1.00;;;;;;4935558;29;20268;-87
2022/10/29 10:20:48;;;;;;;16.45;12.63;;;18.00;1.00;;;;;;4942750;28;20197;-86
2022/10/29 10:23:40;;;;;;;13.05;9.55;;;18.00;1.00;;;;;;4935268;29;20217;-90
2022/10/29 10:26:31;;;;;;;19.25;11.52;;;17.90;1.00;;;;;;4935588;29;20262;-87
2022/10/29 10:29:15;;;;;;;14.15;11.20;;;17.90;1.00;;;;;;4935238;29;20656;-89
2022/10/29 10:31:45;;;;;;;18.38;10.60;;;18.00;99.90;;;;;;4935200;29;20200;-87
2022/10/29 10:34:18;;;;;;;15.30;10.20;;;18.10;99.90;;;;;;4935367;29;20200;-87
2022/10/29 10:36:49;;;;;;;14.90;9.73;;;18.20;99.90;;;;;;4935692;29;20589;-87
2022/10/29 10:39:28;;;;;;;14.95;10.10;;;18.30;99.90;;;;;;4935098;29;20178;-87
2022/10/29 10:41:56;;;;;;;13.70;9.18;;;18.30;99.90;;;;;;4935225;29;20192;-87
2022/10/29 10:44:23;;;;;;;14.93;9.23;;;18.40;99.90;;;;;;4935062;28;20236;-87
2022/10/29 10:47:15;;;;;;;12.55;9.02;;;18.40;99.90;;;;;;4939989;29;20197;-90
2022/10/29 10:49:48;;;;;;;14.68;9.90;;;18.40;99.90;;;;;;4959349;29;20197;-91
2022/10/29 10:52:38;;;;;;;20.23;13.82;;;18.40;82.20;;;;;;4955095;28;20212;-91
2022/10/29 10:55:23;;;;;;;42.05;28.13;;;18.40;22.20;;;;;;4959953;28;20204;-91
2022/10/29 10:58:12;;;;;;;14.80;10.18;;;18.30;1.00;;;;;;4958928;28;20173;-92
2022/10/29 11:01:18;;;;;;;15.30;9.40;;;18.30;11.90;;;;;;4959063;28;20272;-91
2022/10/29 11:04:03;;;;;;;18.95;13.60;;;18.40;1.00;;;;;;4959115;28;20224;-87
2022/10/29 11:06:41;;;;;;;13.88;9.95;;;18.50;1.00;;;;;;4957737;28;20229;-89
2022/10/29 11:09:18;;;;;;;19.38;10.38;;;18.40;1.00;;;;;;4945765;28;20199;-84
2022/10/29 11:11:51;;;;;;;15.82;11.18;;;18.40;1.00;;;;;;4933379;29;20197;-84
2022/10/29 11:14:25;;;;;;;19.90;14.25;;;18.50;1.00;;;;;;4935454;29;20272;-85
2022/10/29 11:16:55;;;;;;;117.80;53.03;;;18.50;1.00;;;;;;4937854;29;20183;-90
2022/10/29 11:19:28;;;;;;;105.05;45.55;;;18.40;1.00;;;;;;4938248;28;20197;-92
2022/10/29 11:22:07;;;;;;;66.75;33.00;;;18.50;1.00;;;;;;4947372;29;20194;-88
2022/10/29 11:24:45;;;;;;;24.95;17.73;;;18.50;1.00;;;;;;4948119;29;20260;-84
2022/10/29 11:27:23;;;;;;;19.40;11.90;;;18.50;1.00;;;;;;4937465;29;20655;-84
2022/10/29 11:29:59;;;;;;;17.10;13.10;;;18.70;1.00;;;;;;4936788;29;20710;-83
2022/10/29 11:32:34;;;;;;;22.15;14.73;;;18.80;1.00;;;;;;4937389;29;20192;-83
2022/10/29 11:35:09;;;;;;;13.23;10.23;;;18.90;1.00;;;;;;4937075;29;20220;-84
2022/10/29 11:37:44;;;;;;;13.73;8.45;;;19.10;1.00;;;;;;4937493;29;20195;-87
2022/10/29 11:40:14;;;;;;;15.55;10.15;;;19.40;1.00;;;;;;4937170;29;20272;-84
2022/10/29 11:42:42;;;;;;;18.50;12.95;;;19.60;1.00;;;;;;4936827;29;20289;-84
2022/10/29 11:45:13;;;;;;;17.95;13.60;;;19.70;1.00;;;;;;4937442;29;20224;-84
2022/10/29 11:48:05;;;;;;;15.57;12.30;;;19.80;1.00;;;;;;4932816;29;20185;-84
2022/10/29 11:50:42;;;;;;;13.48;9.82;;;19.80;1.00;;;;;;4924130;29;20193;-84
2022/10/29 11:53:23;;;;;;;16.67;14.30;;;19.60;1.00;;;;;;4936630;29;20188;-84
2022/10/29 11:56:01;;;;;;;11.93;7.95;;;19.50;1.00;;;;;;4939160;29;20192;-84
2022/10/29 11:58:34;;;;;;;12.82;8.55;;;19.30;1.00;;;;;;4937150;29;20666;-85
2022/10/29 12:01:08;;;;;;;22.52;17.05;;;19.20;1.00;;;;;;4936800;29;20204;-87
2022/10/29 12:03:51;;;;;;;41.28;36.70;;;19.10;1.00;;;;;;4936604;29;20203;-85
2022/10/29 12:06:26;;;;;;;19.77;17.52;;;19.00;1.00;;;;;;4936949;29;20188;-87
2022/10/29 12:09:02;;;;;;;21.75;18.13;;;18.90;1.00;;;;;;4935971;29;20549;-85
2022/10/29 12:11:37;;;;;;;17.38;14.13;;;18.90;1.00;;;;;;4937024;29;20185;-86
2022/10/29 12:14:14;;;;;;;22.60;16.98;;;18.80;1.00;;;;;;4936782;29;20226;-91
2022/10/29 12:16:52;;;;;;;16.98;12.35;;;18.80;1.00;;;;;;4936202;29;20651;-90
2022/10/29 12:19:34;;;;;;;14.45;9.80;;;18.80;1.00;;;;;;4936712;29;20200;-88
2022/10/29 12:22:13;;;;;;;24.27;18.63;;;18.80;1.00;;;;;;4936567;29;20264;-88
2022/10/29 12:24:57;;;;;;;24.25;17.75;;;18.80;1.00;;;;;;4936843;29;20205;-88
2022/10/29 12:27:32;;;;;;;15.68;11.02;;;18.80;1.00;;;;;;4935691;29;20196;-89
2022/10/29 12:30:03;;;;;;;19.35;12.63;;;18.80;1.00;;;;;;4949771;29;20212;-90
2022/10/29 12:32:35;;;;;;;15.25;8.88;;;18.80;1.00;;;;;;4937800;29;20187;-89
2022/10/29 12:35:10;;;;;;;12.98;7.63;;;18.80;1.00;;;;;;4936386;29;20241;-87
2022/10/29 12:37:46;;;;;;;29.63;17.35;;;18.80;1.00;;;;;;4936520;29;20667;-86
2022/10/29 12:40:18;;;;;;;8.45;3.95;;;18.90;1.00;;;;;;4936819;29;20173;-87
2022/10/29 12:42:47;;;;;;;32.85;18.17;;;19.00;1.00;;;;;;4936782;29;20184;-87
2022/10/29 12:45:34;;;;;;;15.68;7.55;;;19.00;1.00;;;;;;4935998;29;20660;-86
2022/10/29 12:48:13;;;;;;;20.08;11.80;;;18.90;1.00;;;;;;4936769;29;20200;-86
2022/10/29 12:50:50;;;;;;;10.00;5.95;;;18.90;1.00;;;;;;4951683;28;20203;-87
2022/10/29 12:53:28;;;;;;;16.58;9.82;;;19.00;1.00;;;;;;4935995;29;20185;-87
2022/10/29 12:56:10;;;;;;;9.25;4.68;;;19.10;1.00;;;;;;4939732;28;20193;-87
2022/10/29 12:58:45;;;;;;;6.22;3.47;;;19.20;1.00;;;;;;4937235;28;20204;-89